This is the latest recevied weather packets stored in our database for station/object SQ6IUS-13. If no packets are shown the sender has not sent any weather packets the latest 10 day(s).
| Time | Temp. | Humidity | Pressure | Rain* | Wind** | Luminosity | Snow |
|---|---|---|---|---|---|---|---|
| 1788167067 | 20.56° C | 100% | 1014 hPa | - | - | - | - |
| 1788166169 | 21.11° C | 100% | 1013.9 hPa | - | - | - | - |
| 1788164370 | 21.67° C | 100% | 1013.7 hPa | - | - | - | - |
| 1788163470 | 21.67° C | 100% | 1013.7 hPa | - | - | - | - |
| 1788162571 | 21.67° C | 100% | 1013.9 hPa | - | - | - | - |
| 1788160772 | 20.56° C | 100% | 1013.9 hPa | - | - | - | - |
| 1788159874 | 20.56° C | 100% | 1013.9 hPa | - | - | - | - |
| 1788158974 | 18.89° C | 100% | 1014.1 hPa | - | - | - | - |
| 1788158074 | 17.78° C | 100% | 1014.1 hPa | - | - | - | - |
| 1788156276 | 16.67° C | 100% | 1014.3 hPa | - | - | - | - |
| 1788155377 | 15.56° C | 100% | 1014.3 hPa | - | - | - | - |
| 1788154477 | 14.44° C | 100% | 1014.4 hPa | - | - | - | - |
| 1788153578 | 13.33° C | 100% | 1014.5 hPa | - | - | - | - |
| 1788152678 | 12.78° C | 100% | 1014.5 hPa | - | - | - | - |
| 1788151780 | 12.22° C | 100% | 1014.6 hPa | - | - | - | - |
| 1788150880 | 12.22° C | 100% | 1014.6 hPa | - | - | - | - |
| 1788149981 | 12.22° C | 100% | 1014.5 hPa | - | - | - | - |
| 1788149083 | 11.67° C | 100% | 1014.6 hPa | - | - | - | - |
| 1788148184 | 11.67° C | 100% | 1014.6 hPa | - | - | - | - |
| 1788147285 | 11.67° C | 100% | 1014.7 hPa | - | - | - | - |
| 1788146385 | 11.67° C | 100% | 1014.7 hPa | - | - | - | - |
| 1788120314 | 16.67° C | 100% | 1014.6 hPa | - | - | - | - |
| 1788114918 | 20° C | 100% | 1014.4 hPa | - | - | - | - |
| 1788111323 | 23.33° C | 100% | 1013.7 hPa | - | - | - | - |
| 1788108915 | 25.56° C | 100% | 1013.5 hPa | - | - | - | - |
* Rain since midnight (hover to see other rain measurements)
** Current wind speed in m/s (hover to see current wind gust speed)